sensor_id;sensor_type;location;lat;lon;timestamp;temperature;humidity
47114;DHT22;32867;51.556;6.832;2023-07-28T00:04:47;17.70;99.90
47114;DHT22;32867;51.556;6.832;2023-07-28T00:09:48;17.60;99.90
47114;DHT22;32867;51.556;6.832;2023-07-28T00:14:50;17.60;99.90
47114;DHT22;32867;51.556;6.832;2023-07-28T00:19:50;17.60;99.90
47114;DHT22;32867;51.556;6.832;2023-07-28T00:24:52;17.50;99.90
47114;DHT22;32867;51.556;6.832;2023-07-28T00:29:53;17.60;99.90
47114;DHT22;32867;51.556;6.832;2023-07-28T00:34:54;17.70;99.90
47114;DHT22;32867;51.556;6.832;2023-07-28T00:39:54;17.50;99.90
47114;DHT22;32867;51.556;6.832;2023-07-28T00:44:55;17.60;99.90
47114;DHT22;32867;51.556;6.832;2023-07-28T00:49:56;17.70;99.90
47114;DHT22;32867;51.556;6.832;2023-07-28T00:54:56;17.70;99.90
47114;DHT22;32867;51.556;6.832;2023-07-28T00:59:57;17.70;99.90
47114;DHT22;32867;51.556;6.832;2023-07-28T01:04:58;17.70;99.90
47114;DHT22;32867;51.556;6.832;2023-07-28T01:10:18;17.70;99.90
47114;DHT22;32867;51.556;6.832;2023-07-28T01:15:24;17.70;99.90
47114;DHT22;32867;51.556;6.832;2023-07-28T01:20:30;17.70;99.90
47114;DHT22;32867;51.556;6.832;2023-07-28T01:25:43;17.70;99.90
47114;DHT22;32867;51.556;6.832;2023-07-28T01:30:47;17.70;99.90
47114;DHT22;32867;51.556;6.832;2023-07-28T01:35:48;17.70;99.90
47114;DHT22;32867;51.556;6.832;2023-07-28T01:40:49;17.90;99.90
47114;DHT22;32867;51.556;6.832;2023-07-28T01:45:49;17.80;99.90
47114;DHT22;32867;51.556;6.832;2023-07-28T01:50:51;17.70;99.90
47114;DHT22;32867;51.556;6.832;2023-07-28T01:55:52;17.80;99.90
47114;DHT22;32867;51.556;6.832;2023-07-28T02:00:53;17.80;99.90
47114;DHT22;32867;51.556;6.832;2023-07-28T02:05:54;17.90;99.90
47114;DHT22;32867;51.556;6.832;2023-07-28T02:10:54;17.80;99.90
47114;DHT22;32867;51.556;6.832;2023-07-28T02:15:55;17.90;99.90
47114;DHT22;32867;51.556;6.832;2023-07-28T02:20:56;17.90;99.90
47114;DHT22;32867;51.556;6.832;2023-07-28T02:25:56;17.90;99.90
47114;DHT22;32867;51.556;6.832;2023-07-28T02:30:57;17.90;99.90
47114;DHT22;32867;51.556;6.832;2023-07-28T02:35:58;17.90;99.90
47114;DHT22;32867;51.556;6.832;2023-07-28T02:40:58;17.90;99.90
47114;DHT22;32867;51.556;6.832;2023-07-28T02:46:00;17.90;99.90
47114;DHT22;32867;51.556;6.832;2023-07-28T02:51:02;17.80;99.90
47114;DHT22;32867;51.556;6.832;2023-07-28T02:56:03;17.90;99.90
47114;DHT22;32867;51.556;6.832;2023-07-28T03:01:03;18.00;99.90
47114;DHT22;32867;51.556;6.832;2023-07-28T03:06:09;17.90;99.90
47114;DHT22;32867;51.556;6.832;2023-07-28T03:11:11;18.00;99.90
47114;DHT22;32867;51.556;6.832;2023-07-28T03:16:12;18.00;99.90
47114;DHT22;32867;51.556;6.832;2023-07-28T03:21:14;18.00;99.90
47114;DHT22;32867;51.556;6.832;2023-07-28T03:26:15;18.00;99.90
47114;DHT22;32867;51.556;6.832;2023-07-28T03:31:16;18.10;99.90
47114;DHT22;32867;51.556;6.832;2023-07-28T03:36:16;18.00;99.90
47114;DHT22;32867;51.556;6.832;2023-07-28T03:41:18;18.10;99.90
47114;DHT22;32867;51.556;6.832;2023-07-28T03:46:18;18.10;99.90
47114;DHT22;32867;51.556;6.832;2023-07-28T03:51:19;18.10;99.90
47114;DHT22;32867;51.556;6.832;2023-07-28T03:56:20;18.10;99.90
47114;DHT22;32867;51.556;6.832;2023-07-28T04:01:20;18.00;99.90
47114;DHT22;32867;51.556;6.832;2023-07-28T04:06:45;18.10;99.90
47114;DHT22;32867;51.556;6.832;2023-07-28T04:11:46;18.10;99.90
47114;DHT22;32867;51.556;6.832;2023-07-28T04:16:47;18.10;99.90
47114;DHT22;32867;51.556;6.832;2023-07-28T04:21:48;18.10;99.90
47114;DHT22;32867;51.556;6.832;2023-07-28T04:26:48;18.10;99.90
47114;DHT22;32867;51.556;6.832;2023-07-28T04:31:49;18.10;99.90
47114;DHT22;32867;51.556;6.832;2023-07-28T04:36:56;18.10;99.90
47114;DHT22;32867;51.556;6.832;2023-07-28T04:42:00;18.10;99.90
47114;DHT22;32867;51.556;6.832;2023-07-28T04:47:01;18.20;99.90
47114;DHT22;32867;51.556;6.832;2023-07-28T04:52:03;18.20;99.90
47114;DHT22;32867;51.556;6.832;2023-07-28T04:57:17;18.20;99.90
47114;DHT22;32867;51.556;6.832;2023-07-28T05:02:20;18.20;99.90
47114;DHT22;32867;51.556;6.832;2023-07-28T05:07:21;18.30;99.90
47114;DHT22;32867;51.556;6.832;2023-07-28T05:12:21;18.40;99.90
47114;DHT22;32867;51.556;6.832;2023-07-28T05:17:23;18.30;99.90
47114;DHT22;32867;51.556;6.832;2023-07-28T05:22:39;18.40;99.90
47114;DHT22;32867;51.556;6.832;2023-07-28T05:27:40;18.40;99.90
47114;DHT22;32867;51.556;6.832;2023-07-28T05:32:40;18.50;99.90
47114;DHT22;32867;51.556;6.832;2023-07-28T05:37:41;18.50;99.90
47114;DHT22;32867;51.556;6.832;2023-07-28T05:42:42;18.50;99.90
47114;DHT22;32867;51.556;6.832;2023-07-28T05:47:43;18.60;99.90
47114;DHT22;32867;51.556;6.832;2023-07-28T05:52:44;18.60;99.90
47114;DHT22;32867;51.556;6.832;2023-07-28T05:57:44;18.70;99.90
47114;DHT22;32867;51.556;6.832;2023-07-28T06:02:46;18.70;99.90
47114;DHT22;32867;51.556;6.832;2023-07-28T06:08:04;18.70;99.90
47114;DHT22;32867;51.556;6.832;2023-07-28T06:13:05;18.60;99.90
47114;DHT22;32867;51.556;6.832;2023-07-28T06:18:06;18.50;99.90
47114;DHT22;32867;51.556;6.832;2023-07-28T06:23:07;18.60;99.90
47114;DHT22;32867;51.556;6.832;2023-07-28T06:28:08;18.60;99.90
47114;DHT22;32867;51.556;6.832;2023-07-28T06:33:09;18.70;99.90
47114;DHT22;32867;51.556;6.832;2023-07-28T06:38:09;18.70;99.90
47114;DHT22;32867;51.556;6.832;2023-07-28T06:43:10;18.80;99.90
47114;DHT22;32867;51.556;6.832;2023-07-28T06:48:11;18.90;99.90
47114;DHT22;32867;51.556;6.832;2023-07-28T06:53:11;18.90;99.90
47114;DHT22;32867;51.556;6.832;2023-07-28T06:58:12;18.90;99.90
47114;DHT22;32867;51.556;6.832;2023-07-28T07:03:13;18.90;99.90
47114;DHT22;32867;51.556;6.832;2023-07-28T07:08:14;19.20;99.90
47114;DHT22;32867;51.556;6.832;2023-07-28T07:13:15;19.20;99.90
47114;DHT22;32867;51.556;6.832;2023-07-28T07:18:16;19.30;99.90
47114;DHT22;32867;51.556;6.832;2023-07-28T07:23:17;19.40;99.90
47114;DHT22;32867;51.556;6.832;2023-07-28T07:28:17;19.30;99.90
47114;DHT22;32867;51.556;6.832;2023-07-28T07:33:18;19.50;99.90
47114;DHT22;32867;51.556;6.832;2023-07-28T07:38:19;19.90;99.90
47114;DHT22;32867;51.556;6.832;2023-07-28T07:43:20;19.90;99.90
47114;DHT22;32867;51.556;6.832;2023-07-28T07:48:21;19.80;99.90
47114;DHT22;32867;51.556;6.832;2023-07-28T07:53:22;19.70;99.90
47114;DHT22;32867;51.556;6.832;2023-07-28T07:58:22;20.00;99.90
47114;DHT22;32867;51.556;6.832;2023-07-28T08:03:23;19.90;99.90
47114;DHT22;32867;51.556;6.832;2023-07-28T08:08:24;20.00;99.90
47114;DHT22;32867;51.556;6.832;2023-07-28T08:13:25;20.00;99.90
47114;DHT22;32867;51.556;6.832;2023-07-28T08:18:26;20.10;99.90
47114;DHT22;32867;51.556;6.832;2023-07-28T08:23:27;20.20;99.90
47114;DHT22;32867;51.556;6.832;2023-07-28T08:28:28;20.30;99.90
47114;DHT22;32867;51.556;6.832;2023-07-28T08:33:29;20.30;99.90
47114;DHT22;32867;51.556;6.832;2023-07-28T08:38:29;20.10;99.90
47114;DHT22;32867;51.556;6.832;2023-07-28T08:43:30;20.30;99.90
47114;DHT22;32867;51.556;6.832;2023-07-28T08:48:31;20.50;99.90
47114;DHT22;32867;51.556;6.832;2023-07-28T08:53:32;20.70;99.90
47114;DHT22;32867;51.556;6.832;2023-07-28T08:58:33;20.80;99.90
47114;DHT22;32867;51.556;6.832;2023-07-28T09:03:33;20.80;99.90
47114;DHT22;32867;51.556;6.832;2023-07-28T09:08:37;21.10;99.90
47114;DHT22;32867;51.556;6.832;2023-07-28T09:13:41;21.40;99.90
47114;DHT22;32867;51.556;6.832;2023-07-28T09:18:41;21.40;99.90
47114;DHT22;32867;51.556;6.832;2023-07-28T09:23:43;21.80;99.90
47114;DHT22;32867;51.556;6.832;2023-07-28T09:28:45;22.00;99.90
47114;DHT22;32867;51.556;6.832;2023-07-28T09:33:46;21.60;99.90
47114;DHT22;32867;51.556;6.832;2023-07-28T09:38:49;22.00;99.90
47114;DHT22;32867;51.556;6.832;2023-07-28T09:43:51;21.70;99.90
47114;DHT22;32867;51.556;6.832;2023-07-28T09:48:56;21.70;99.90
47114;DHT22;32867;51.556;6.832;2023-07-28T09:54:12;21.70;99.90
47114;DHT22;32867;51.556;6.832;2023-07-28T09:59:17;22.20;99.90
47114;DHT22;32867;51.556;6.832;2023-07-28T10:04:18;22.20;99.90
47114;DHT22;32867;51.556;6.832;2023-07-28T10:09:19;22.10;99.90
47114;DHT22;32867;51.556;6.832;2023-07-28T10:14:30;22.00;99.90
47114;DHT22;32867;51.556;6.832;2023-07-28T10:19:36;22.00;99.90
47114;DHT22;32867;51.556;6.832;2023-07-28T10:25:09;22.50;99.90
47114;DHT22;32867;51.556;6.832;2023-07-28T10:30:12;22.00;99.90
47114;DHT22;32867;51.556;6.832;2023-07-28T10:40:27;22.30;99.90
47114;DHT22;32867;51.556;6.832;2023-07-28T10:45:30;22.20;99.90
47114;DHT22;32867;51.556;6.832;2023-07-28T10:50:31;22.50;99.90
47114;DHT22;32867;51.556;6.832;2023-07-28T10:55:32;22.90;99.90
47114;DHT22;32867;51.556;6.832;2023-07-28T11:00:33;22.60;99.90
47114;DHT22;32867;51.556;6.832;2023-07-28T11:05:34;22.50;99.90
47114;DHT22;32867;51.556;6.832;2023-07-28T11:10:35;22.60;99.90
47114;DHT22;32867;51.556;6.832;2023-07-28T11:15:35;22.90;99.90
47114;DHT22;32867;51.556;6.832;2023-07-28T11:20:36;23.00;99.90
47114;DHT22;32867;51.556;6.832;2023-07-28T11:25:37;23.00;99.90
47114;DHT22;32867;51.556;6.832;2023-07-28T11:30:38;23.00;99.90
47114;DHT22;32867;51.556;6.832;2023-07-28T11:35:39;23.10;99.90
47114;DHT22;32867;51.556;6.832;2023-07-28T11:40:41;23.30;99.90
47114;DHT22;32867;51.556;6.832;2023-07-28T11:45:42;23.40;99.90
47114;DHT22;32867;51.556;6.832;2023-07-28T11:50:43;23.50;99.90
47114;DHT22;32867;51.556;6.832;2023-07-28T11:55:46;24.10;99.90
47114;DHT22;32867;51.556;6.832;2023-07-28T12:00:47;25.20;99.90
47114;DHT22;32867;51.556;6.832;2023-07-28T12:06:05;25.50;99.90
47114;DHT22;32867;51.556;6.832;2023-07-28T12:11:14;25.50;99.90
47114;DHT22;32867;51.556;6.832;2023-07-28T12:16:40;25.50;99.90
47114;DHT22;32867;51.556;6.832;2023-07-28T12:21:44;25.00;99.90
47114;DHT22;32867;51.556;6.832;2023-07-28T12:26:50;25.10;99.90
47114;DHT22;32867;51.556;6.832;2023-07-28T12:31:51;25.50;99.90
47114;DHT22;32867;51.556;6.832;2023-07-28T12:36:53;25.60;99.90
47114;DHT22;32867;51.556;6.832;2023-07-28T12:41:56;25.60;99.90
47114;DHT22;32867;51.556;6.832;2023-07-28T12:46:57;26.30;99.90
47114;DHT22;32867;51.556;6.832;2023-07-28T12:51:59;26.80;99.90
47114;DHT22;32867;51.556;6.832;2023-07-28T12:56:59;26.80;99.90
47114;DHT22;32867;51.556;6.832;2023-07-28T13:02:00;26.00;99.90
47114;DHT22;32867;51.556;6.832;2023-07-28T13:07:00;25.90;99.90
47114;DHT22;32867;51.556;6.832;2023-07-28T13:12:01;25.80;99.90
47114;DHT22;32867;51.556;6.832;2023-07-28T13:17:03;25.30;99.90
47114;DHT22;32867;51.556;6.832;2023-07-28T13:22:04;25.50;99.90
47114;DHT22;32867;51.556;6.832;2023-07-28T13:27:05;26.20;99.90
47114;DHT22;32867;51.556;6.832;2023-07-28T13:32:17;25.50;99.90
47114;DHT22;32867;51.556;6.832;2023-07-28T13:37:17;25.60;99.90
47114;DHT22;32867;51.556;6.832;2023-07-28T13:42:18;25.30;99.90
47114;DHT22;32867;51.556;6.832;2023-07-28T13:47:19;25.40;99.90
47114;DHT22;32867;51.556;6.832;2023-07-28T13:52:21;25.20;99.90
47114;DHT22;32867;51.556;6.832;2023-07-28T13:57:22;25.50;99.90
47114;DHT22;32867;51.556;6.832;2023-07-28T14:02:23;25.70;99.90
47114;DHT22;32867;51.556;6.832;2023-07-28T14:07:23;25.90;99.90
47114;DHT22;32867;51.556;6.832;2023-07-28T14:12:24;25.80;99.90
47114;DHT22;32867;51.556;6.832;2023-07-28T14:17:24;25.70;99.90
47114;DHT22;32867;51.556;6.832;2023-07-28T14:22:25;25.90;99.90
47114;DHT22;32867;51.556;6.832;2023-07-28T14:27:26;25.80;99.90
47114;DHT22;32867;51.556;6.832;2023-07-28T14:32:26;25.40;99.90
47114;DHT22;32867;51.556;6.832;2023-07-28T14:37:27;25.20;99.90
47114;DHT22;32867;51.556;6.832;2023-07-28T14:42:28;25.30;99.90
47114;DHT22;32867;51.556;6.832;2023-07-28T14:47:28;25.50;99.90
47114;DHT22;32867;51.556;6.832;2023-07-28T14:52:29;25.80;99.90
47114;DHT22;32867;51.556;6.832;2023-07-28T14:57:30;25.80;99.90
47114;DHT22;32867;51.556;6.832;2023-07-28T15:02:33;25.80;99.90
47114;DHT22;32867;51.556;6.832;2023-07-28T15:07:34;26.30;99.90
47114;DHT22;32867;51.556;6.832;2023-07-28T15:12:36;26.00;99.90
47114;DHT22;32867;51.556;6.832;2023-07-28T15:17:37;26.00;99.90
47114;DHT22;32867;51.556;6.832;2023-07-28T15:22:38;25.90;99.90
47114;DHT22;32867;51.556;6.832;2023-07-28T15:27:40;25.40;99.90
47114;DHT22;32867;51.556;6.832;2023-07-28T15:32:41;25.00;99.90
47114;DHT22;32867;51.556;6.832;2023-07-28T15:37:42;24.60;99.90
47114;DHT22;32867;51.556;6.832;2023-07-28T15:42:43;24.30;99.90
47114;DHT22;32867;51.556;6.832;2023-07-28T15:47:44;24.00;99.90
47114;DHT22;32867;51.556;6.832;2023-07-28T15:52:45;24.10;99.90
47114;DHT22;32867;51.556;6.832;2023-07-28T15:57:45;24.10;99.90
47114;DHT22;32867;51.556;6.832;2023-07-28T16:02:46;24.30;99.90
47114;DHT22;32867;51.556;6.832;2023-07-28T16:07:47;24.20;99.90
47114;DHT22;32867;51.556;6.832;2023-07-28T16:12:47;24.00;99.90
47114;DHT22;32867;51.556;6.832;2023-07-28T16:17:48;23.80;99.90
47114;DHT22;32867;51.556;6.832;2023-07-28T16:22:49;23.70;99.90
47114;DHT22;32867;51.556;6.832;2023-07-28T16:27:49;23.70;99.90
47114;DHT22;32867;51.556;6.832;2023-07-28T16:32:50;23.70;99.90
47114;DHT22;32867;51.556;6.832;2023-07-28T16:37:51;23.90;99.90
47114;DHT22;32867;51.556;6.832;2023-07-28T16:42:51;24.10;99.90
47114;DHT22;32867;51.556;6.832;2023-07-28T16:47:52;24.00;99.90
47114;DHT22;32867;51.556;6.832;2023-07-28T16:52:52;24.10;99.90
47114;DHT22;32867;51.556;6.832;2023-07-28T16:57:53;24.40;99.90
47114;DHT22;32867;51.556;6.832;2023-07-28T17:02:54;25.70;99.90
47114;DHT22;32867;51.556;6.832;2023-07-28T17:07:54;32.90;94.90
47114;DHT22;32867;51.556;6.832;2023-07-28T17:12:55;39.30;71.10
47114;DHT22;32867;51.556;6.832;2023-07-28T17:17:56;42.20;60.60
47114;DHT22;32867;51.556;6.832;2023-07-28T17:22:57;42.30;57.60
47114;DHT22;32867;51.556;6.832;2023-07-28T17:27:57;41.70;57.20
47114;DHT22;32867;51.556;6.832;2023-07-28T17:32:58;39.60;56.90
47114;DHT22;32867;51.556;6.832;2023-07-28T17:37:59;33.10;67.80
47114;DHT22;32867;51.556;6.832;2023-07-28T17:43:03;28.30;91.20
47114;DHT22;32867;51.556;6.832;2023-07-28T17:48:04;29.10;95.40
47114;DHT22;32867;51.556;6.832;2023-07-28T17:53:07;31.40;84.40
47114;DHT22;32867;51.556;6.832;2023-07-28T17:58:08;29.90;85.60
47114;DHT22;32867;51.556;6.832;2023-07-28T18:03:10;27.40;96.30
47114;DHT22;32867;51.556;6.832;2023-07-28T18:08:11;27.90;97.70
47114;DHT22;32867;51.556;6.832;2023-07-28T18:13:12;26.40;99.40
47114;DHT22;32867;51.556;6.832;2023-07-28T18:18:16;25.40;99.90
47114;DHT22;32867;51.556;6.832;2023-07-28T18:23:17;24.80;99.90
47114;DHT22;32867;51.556;6.832;2023-07-28T18:28:18;24.80;99.90
47114;DHT22;32867;51.556;6.832;2023-07-28T18:33:18;24.60;99.90
47114;DHT22;32867;51.556;6.832;2023-07-28T18:38:23;24.60;99.90
47114;DHT22;32867;51.556;6.832;2023-07-28T18:43:24;24.30;99.90
47114;DHT22;32867;51.556;6.832;2023-07-28T18:48:29;24.30;99.90
47114;DHT22;32867;51.556;6.832;2023-07-28T18:53:30;25.50;99.90
47114;DHT22;32867;51.556;6.832;2023-07-28T18:58:30;27.40;99.90
47114;DHT22;32867;51.556;6.832;2023-07-28T19:03:31;27.80;99.90
47114;DHT22;32867;51.556;6.832;2023-07-28T19:08:33;26.90;99.90
47114;DHT22;32867;51.556;6.832;2023-07-28T19:13:35;25.40;99.90
47114;DHT22;32867;51.556;6.832;2023-07-28T19:18:36;24.40;99.90
47114;DHT22;32867;51.556;6.832;2023-07-28T19:23:37;23.90;99.90
47114;DHT22;32867;51.556;6.832;2023-07-28T19:28:38;23.50;99.90
47114;DHT22;32867;51.556;6.832;2023-07-28T19:33:39;23.20;99.90
47114;DHT22;32867;51.556;6.832;2023-07-28T19:38:41;23.10;99.90
47114;DHT22;32867;51.556;6.832;2023-07-28T19:43:43;22.90;99.90
47114;DHT22;32867;51.556;6.832;2023-07-28T19:48:45;22.70;99.90
47114;DHT22;32867;51.556;6.832;2023-07-28T19:53:49;22.60;99.90
47114;DHT22;32867;51.556;6.832;2023-07-28T19:58:53;22.50;99.90
47114;DHT22;32867;51.556;6.832;2023-07-28T20:03:53;22.40;99.90
47114;DHT22;32867;51.556;6.832;2023-07-28T20:08:55;22.30;99.90
47114;DHT22;32867;51.556;6.832;2023-07-28T20:14:04;22.30;99.90
47114;DHT22;32867;51.556;6.832;2023-07-28T20:19:06;22.20;99.90
47114;DHT22;32867;51.556;6.832;2023-07-28T20:24:08;22.20;99.90
47114;DHT22;32867;51.556;6.832;2023-07-28T20:29:09;22.20;99.90
47114;DHT22;32867;51.556;6.832;2023-07-28T20:34:10;22.10;99.90
47114;DHT22;32867;51.556;6.832;2023-07-28T20:39:10;22.10;99.90
47114;DHT22;32867;51.556;6.832;2023-07-28T20:44:13;22.00;99.90
47114;DHT22;32867;51.556;6.832;2023-07-28T20:49:16;22.00;99.90
47114;DHT22;32867;51.556;6.832;2023-07-28T20:54:18;21.90;99.90
47114;DHT22;32867;51.556;6.832;2023-07-28T20:59:19;21.90;99.90
47114;DHT22;32867;51.556;6.832;2023-07-28T21:04:20;22.00;99.90
47114;DHT22;32867;51.556;6.832;2023-07-28T21:09:20;21.90;99.90
47114;DHT22;32867;51.556;6.832;2023-07-28T21:14:21;21.90;99.90
47114;DHT22;32867;51.556;6.832;2023-07-28T21:19:22;21.80;99.90
47114;DHT22;32867;51.556;6.832;2023-07-28T21:24:22;21.80;99.90
47114;DHT22;32867;51.556;6.832;2023-07-28T21:29:23;21.70;99.90
47114;DHT22;32867;51.556;6.832;2023-07-28T21:34:23;21.70;99.90
47114;DHT22;32867;51.556;6.832;2023-07-28T21:39:24;21.70;99.90
47114;DHT22;32867;51.556;6.832;2023-07-28T21:44:25;21.70;99.90
47114;DHT22;32867;51.556;6.832;2023-07-28T21:49:26;21.60;99.90
47114;DHT22;32867;51.556;6.832;2023-07-28T21:54:27;21.50;99.90
47114;DHT22;32867;51.556;6.832;2023-07-28T21:59:28;21.40;99.90
47114;DHT22;32867;51.556;6.832;2023-07-28T22:04:29;21.30;99.90
47114;DHT22;32867;51.556;6.832;2023-07-28T22:09:29;21.30;99.90
47114;DHT22;32867;51.556;6.832;2023-07-28T22:14:30;21.30;99.90
47114;DHT22;32867;51.556;6.832;2023-07-28T22:19:31;21.20;99.90
47114;DHT22;32867;51.556;6.832;2023-07-28T22:24:31;21.20;99.90
47114;DHT22;32867;51.556;6.832;2023-07-28T22:29:32;21.20;99.90
47114;DHT22;32867;51.556;6.832;2023-07-28T22:34:34;21.10;99.90
47114;DHT22;32867;51.556;6.832;2023-07-28T22:39:35;21.10;99.90
47114;DHT22;32867;51.556;6.832;2023-07-28T22:44:36;21.00;99.90
47114;DHT22;32867;51.556;6.832;2023-07-28T22:49:37;21.00;99.90
47114;DHT22;32867;51.556;6.832;2023-07-28T22:54:38;21.00;99.90
47114;DHT22;32867;51.556;6.832;2023-07-28T22:59:38;20.90;99.90
47114;DHT22;32867;51.556;6.832;2023-07-28T23:04:39;20.80;99.90
47114;DHT22;32867;51.556;6.832;2023-07-28T23:09:43;20.80;99.90
47114;DHT22;32867;51.556;6.832;2023-07-28T23:14:44;20.70;99.90
47114;DHT22;32867;51.556;6.832;2023-07-28T23:19:44;20.70;99.90
47114;DHT22;32867;51.556;6.832;2023-07-28T23:24:45;20.60;99.90
47114;DHT22;32867;51.556;6.832;2023-07-28T23:29:46;20.50;99.90
47114;DHT22;32867;51.556;6.832;2023-07-28T23:34:46;20.50;99.90
47114;DHT22;32867;51.556;6.832;2023-07-28T23:39:47;20.40;99.90
47114;DHT22;32867;51.556;6.832;2023-07-28T23:44:48;20.40;99.90
47114;DHT22;32867;51.556;6.832;2023-07-28T23:49:48;20.30;99.90
47114;DHT22;32867;51.556;6.832;2023-07-28T23:54:49;20.30;99.90
47114;DHT22;32867;51.556;6.832;2023-07-28T23:59:51;20.20;99.90
